createdAt,value
2023-03-03T00:00:45.810Z,66.90
2023-03-03T00:01:47.969Z,66.90
2023-03-03T00:02:51.323Z,66.90
2023-03-03T00:03:55.464Z,66.90
2023-03-03T00:04:57.834Z,67.00
2023-03-03T00:06:01.719Z,66.90
2023-03-03T00:07:04.085Z,66.90
2023-03-03T00:08:07.588Z,67.00
2023-03-03T00:09:11.122Z,67.00
2023-03-03T00:10:16.694Z,67.40
2023-03-03T00:11:20.623Z,67.60
2023-03-03T00:12:29.813Z,67.70
2023-03-03T00:13:49.280Z,68.00
2023-03-03T00:14:55.570Z,68.10
2023-03-03T00:16:26.574Z,68.00
2023-03-03T00:17:34.683Z,68.20
2023-03-03T00:18:43.087Z,68.00
2023-03-03T00:19:50.378Z,67.90
2023-03-03T00:20:58.427Z,67.70
2023-03-03T00:22:06.383Z,67.50
2023-03-03T00:23:29.925Z,67.30
2023-03-03T00:24:38.993Z,67.10
2023-03-03T00:25:45.059Z,66.80
2023-03-03T00:26:52.173Z,66.60
2023-03-03T00:27:56.296Z,66.40
2023-03-03T00:29:02.003Z,66.40
2023-03-03T00:30:24.731Z,66.40
2023-03-03T00:31:35.328Z,66.40
2023-03-03T00:32:50.433Z,66.10
2023-03-03T00:34:00.534Z,66.30
2023-03-03T00:35:24.800Z,66.50
2023-03-03T00:36:37.806Z,66.70
2023-03-03T00:37:41.537Z,66.90
2023-03-03T00:38:44.955Z,66.80
2023-03-03T00:39:49.718Z,66.70
2023-03-03T00:40:53.708Z,66.60
2023-03-03T00:41:57.407Z,66.40
2023-03-03T00:43:02.198Z,66.40
2023-03-03T00:44:44.149Z,66.40
2023-03-03T00:45:50.020Z,66.20
2023-03-03T00:46:54.094Z,66.20
2023-03-03T00:47:58.594Z,65.90
2023-03-03T00:49:21.963Z,65.80
2023-03-03T00:50:35.420Z,65.90
2023-03-03T00:51:37.710Z,65.80
2023-03-03T00:52:49.347Z,65.80
2023-03-03T00:53:51.951Z,65.80
2023-03-03T00:54:55.406Z,65.60
2023-03-03T00:55:59.570Z,65.60
2023-03-03T00:57:02.142Z,65.60
2023-03-03T00:58:08.533Z,65.50
2023-03-03T00:59:14.397Z,65.60
2023-03-03T01:00:20.006Z,65.50
2023-03-03T01:01:23.151Z,65.60
2023-03-03T01:02:31.013Z,65.60
2023-03-03T01:03:35.761Z,65.70
2023-03-03T01:04:43.910Z,65.70
2023-03-03T01:05:47.244Z,65.60
2023-03-03T01:06:49.916Z,65.60
2023-03-03T01:07:53.179Z,65.60
2023-03-03T01:08:57.410Z,65.40
2023-03-03T01:10:00.725Z,65.30
2023-03-03T01:11:10.957Z,65.20
2023-03-03T01:12:13.854Z,65.30
2023-03-03T01:13:18.355Z,65.40
2023-03-03T01:14:22.398Z,65.50
2023-03-03T01:15:26.422Z,65.60
2023-03-03T01:16:30.573Z,65.70
2023-03-03T01:17:32.907Z,65.80
2023-03-03T01:18:37.448Z,65.90
2023-03-03T01:19:39.659Z,66.50
2023-03-03T01:20:43.566Z,66.10
2023-03-03T01:21:45.810Z,66.10
2023-03-03T01:22:49.019Z,66.30
2023-03-03T01:23:51.245Z,66.30
2023-03-03T01:24:54.796Z,66.30
2023-03-03T01:25:58.283Z,66.30
2023-03-03T01:27:00.706Z,66.40
2023-03-03T01:28:04.256Z,66.60
2023-03-03T01:29:06.521Z,66.70
2023-03-03T01:30:12.457Z,66.70
2023-03-03T01:31:14.720Z,66.70
2023-03-03T01:32:18.244Z,66.60
2023-03-03T01:33:20.590Z,66.60
2023-03-03T01:34:23.894Z,66.40
2023-03-03T01:35:26.412Z,66.50
2023-03-03T01:36:30.448Z,66.60
2023-03-03T01:37:34.467Z,66.70
2023-03-03T01:38:38.385Z,66.90
2023-03-03T01:39:40.597Z,67.30
2023-03-03T01:40:44.081Z,67.60
2023-03-03T01:41:46.834Z,67.90
2023-03-03T01:42:52.678Z,67.90
2023-03-03T01:43:54.948Z,68.00
2023-03-03T01:45:21.595Z,67.90
2023-03-03T01:46:47.972Z,68.00
2023-03-03T01:48:04.586Z,67.90
2023-03-03T01:49:13.072Z,67.80
2023-03-03T01:50:26.403Z,67.80
2023-03-03T01:51:32.380Z,67.70
2023-03-03T01:52:42.909Z,67.70
2023-03-03T01:53:50.102Z,67.80
2023-03-03T01:54:58.966Z,67.70
2023-03-03T01:56:07.544Z,67.60
2023-03-03T01:57:21.040Z,67.40
2023-03-03T01:58:28.989Z,67.50
2023-03-03T01:59:38.331Z,67.30
2023-03-03T02:00:47.832Z,67.90
2023-03-03T02:01:54.698Z,67.30
2023-03-03T02:02:57.148Z,67.30
2023-03-03T02:04:01.240Z,67.30
2023-03-03T02:05:03.824Z,67.20
2023-03-03T02:06:13.050Z,67.10
2023-03-03T02:07:20.004Z,66.90
2023-03-03T02:08:29.677Z,67.00
2023-03-03T02:09:46.849Z,67.00
2023-03-03T02:10:51.745Z,67.00
2023-03-03T02:12:01.573Z,66.90
2023-03-03T02:13:04.955Z,66.90
2023-03-03T02:14:07.294Z,66.90
2023-03-03T02:15:18.856Z,66.80
2023-03-03T02:16:22.985Z,66.80
2023-03-03T02:17:30.002Z,66.70
2023-03-03T02:18:35.151Z,66.60
2023-03-03T02:19:54.562Z,66.50
2023-03-03T02:21:05.735Z,66.40
2023-03-03T02:22:09.927Z,66.60
2023-03-03T02:23:23.577Z,66.50
2023-03-03T02:24:34.862Z,66.60
2023-03-03T02:25:52.235Z,66.70
2023-03-03T02:26:58.288Z,66.60
2023-03-03T02:28:04.163Z,66.70
2023-03-03T02:29:11.811Z,66.60
2023-03-03T02:30:21.759Z,66.40
2023-03-03T02:31:29.344Z,66.30
2023-03-03T02:32:31.809Z,66.20
2023-03-03T02:33:38.305Z,66.10
2023-03-03T02:34:50.816Z,66.10
2023-03-03T02:35:58.214Z,65.90
2023-03-03T02:37:04.414Z,66.00
2023-03-03T02:38:21.188Z,65.80
2023-03-03T02:39:27.044Z,65.70
2023-03-03T02:40:36.362Z,65.60
2023-03-03T02:41:46.128Z,65.60
2023-03-03T02:42:54.798Z,65.60
2023-03-03T02:44:02.018Z,65.70
2023-03-03T02:45:07.629Z,65.90
2023-03-03T02:46:10.983Z,66.00
2023-03-03T02:47:14.311Z,65.90
2023-03-03T02:48:16.606Z,66.00
2023-03-03T02:49:22.818Z,65.90
2023-03-03T02:50:25.504Z,65.90
2023-03-03T02:51:29.239Z,65.90
2023-03-03T02:52:31.404Z,66.00
2023-03-03T02:53:34.640Z,66.00
2023-03-03T02:54:38.061Z,66.20
2023-03-03T02:55:41.551Z,66.30
2023-03-03T02:56:44.767Z,66.20
2023-03-03T02:57:47.996Z,66.20
2023-03-03T02:58:51.667Z,66.10
2023-03-03T02:59:55.108Z,66.20
2023-03-03T03:00:57.342Z,66.10
2023-03-03T03:02:01.235Z,65.80
2023-03-03T03:03:03.735Z,65.90
2023-03-03T03:04:10.139Z,65.80
2023-03-03T03:05:12.409Z,65.70
2023-03-03T03:06:15.791Z,65.70
2023-03-03T03:07:17.956Z,65.60
2023-03-03T03:08:21.131Z,65.50
2023-03-03T03:09:24.962Z,65.50
2023-03-03T03:10:28.136Z,65.50
2023-03-03T03:11:30.481Z,65.50
2023-03-03T03:12:34.000Z,65.60
2023-03-03T03:13:36.691Z,65.70
2023-03-03T03:14:41.371Z,65.70
2023-03-03T03:15:46.623Z,65.60
2023-03-03T03:16:50.100Z,65.70
2023-03-03T03:17:52.385Z,65.80
2023-03-03T03:18:55.611Z,65.80
2023-03-03T03:20:00.560Z,65.90
2023-03-03T03:21:13.077Z,66.00
2023-03-03T03:22:15.271Z,66.10
2023-03-03T03:23:18.875Z,66.20
2023-03-03T03:24:21.094Z,66.40
2023-03-03T03:25:24.422Z,66.40
2023-03-03T03:26:27.338Z,66.50
2023-03-03T03:27:30.770Z,66.40
2023-03-03T03:28:33.680Z,66.40
2023-03-03T03:29:37.075Z,66.60
2023-03-03T03:30:41.951Z,66.50
2023-03-03T03:31:45.224Z,66.40
2023-03-03T03:32:47.830Z,67.10
2023-03-03T03:33:52.006Z,66.40
2023-03-03T03:34:54.289Z,67.00
2023-03-03T03:35:58.580Z,66.60
2023-03-03T03:37:00.803Z,66.60
2023-03-03T03:38:04.622Z,66.50
2023-03-03T03:39:06.968Z,66.50
2023-03-03T03:40:13.126Z,66.70
2023-03-03T03:41:15.354Z,66.80
2023-03-03T03:42:18.550Z,66.90
2023-03-03T03:43:21.139Z,66.80
2023-03-03T03:44:25.317Z,66.70
2023-03-03T03:45:27.542Z,66.70
2023-03-03T03:46:32.195Z,66.80
2023-03-03T03:47:34.837Z,67.10
2023-03-03T03:48:41.375Z,67.20
2023-03-03T03:49:45.835Z,67.30
2023-03-03T03:50:49.993Z,67.40
2023-03-03T03:51:54.747Z,67.40
2023-03-03T03:53:00.529Z,67.40
2023-03-03T03:54:02.818Z,67.50
2023-03-03T03:55:07.332Z,67.30
2023-03-03T03:56:09.718Z,67.30
2023-03-03T03:57:12.931Z,67.30
2023-03-03T03:58:17.239Z,67.20
2023-03-03T03:59:20.496Z,67.30
2023-03-03T04:00:22.835Z,67.10
2023-03-03T04:01:26.627Z,67.20
2023-03-03T04:02:30.588Z,67.30
2023-03-03T04:03:34.141Z,67.20
2023-03-03T04:04:36.662Z,67.10
2023-03-03T04:05:39.902Z,67.10
2023-03-03T04:06:42.169Z,67.00
2023-03-03T04:07:45.610Z,66.90
2023-03-03T04:08:47.987Z,66.90
2023-03-03T04:09:54.824Z,66.80
2023-03-03T04:10:57.196Z,66.70
2023-03-03T04:12:00.462Z,66.50
2023-03-03T04:13:02.785Z,66.50
2023-03-03T04:14:06.221Z,66.50
2023-03-03T04:15:11.946Z,66.60
2023-03-03T04:16:15.239Z,66.60
2023-03-03T04:17:18.223Z,66.50
2023-03-03T04:18:22.952Z,66.60
2023-03-03T04:19:25.252Z,66.50
2023-03-03T04:20:28.752Z,66.40
2023-03-03T04:21:31.014Z,66.40
2023-03-03T04:22:36.077Z,66.20
2023-03-03T04:23:38.338Z,65.90
2023-03-03T04:24:43.635Z,65.90
2023-03-03T04:25:47.011Z,65.80
2023-03-03T04:26:50.340Z,65.70
2023-03-03T04:27:53.068Z,65.70
2023-03-03T04:28:56.425Z,65.80
2023-03-03T04:29:58.675Z,65.80
2023-03-03T04:31:02.036Z,65.70
2023-03-03T04:32:04.625Z,65.50
2023-03-03T04:33:08.294Z,65.50
2023-03-03T04:34:13.204Z,65.40
2023-03-03T04:35:15.488Z,65.30
2023-03-03T04:36:18.901Z,65.40
2023-03-03T04:37:21.227Z,65.30
2023-03-03T04:38:24.718Z,65.30
2023-03-03T04:39:27.324Z,65.30
2023-03-03T04:40:30.685Z,65.20
2023-03-03T04:41:32.918Z,65.10
2023-03-03T04:42:36.314Z,65.40
2023-03-03T04:43:38.554Z,65.30
2023-03-03T04:44:41.786Z,65.10
2023-03-03T04:45:44.730Z,65.20
2023-03-03T04:46:48.069Z,65.30
2023-03-03T04:47:50.289Z,65.40
2023-03-03T04:48:53.658Z,65.50
2023-03-03T04:49:57.866Z,65.50
2023-03-03T04:51:01.189Z,65.50
2023-03-03T04:52:03.604Z,65.30
2023-03-03T04:53:07.031Z,65.30
2023-03-03T04:54:11.200Z,65.10
2023-03-03T04:55:16.698Z,65.10
2023-03-03T04:56:18.976Z,65.40
2023-03-03T04:57:24.137Z,65.50
2023-03-03T04:58:26.582Z,65.50
2023-03-03T04:59:29.888Z,65.60
2023-03-03T05:00:32.595Z,65.70
2023-03-03T05:01:35.909Z,65.70
2023-03-03T05:02:38.340Z,65.50
2023-03-03T05:03:41.624Z,65.60
2023-03-03T05:04:43.861Z,65.80
2023-03-03T05:05:49.545Z,65.90
2023-03-03T05:06:51.860Z,66.00
2023-03-03T05:07:55.129Z,66.20
2023-03-03T05:08:57.426Z,66.40
2023-03-03T05:10:00.897Z,66.70
2023-03-03T05:11:04.318Z,66.70
2023-03-03T05:12:07.950Z,66.70
2023-03-03T05:13:10.648Z,66.70
2023-03-03T05:14:16.585Z,67.00
2023-03-03T05:15:19.420Z,67.20
2023-03-03T05:16:22.813Z,67.30
2023-03-03T05:17:25.335Z,67.20
2023-03-03T05:18:29.015Z,67.10
2023-03-03T05:19:31.474Z,67.20
2023-03-03T05:20:34.912Z,67.20
2023-03-03T05:21:42.969Z,67.10
2023-03-03T05:22:46.310Z,67.00
2023-03-03T05:23:48.646Z,66.90
2023-03-03T05:24:54.109Z,66.80
2023-03-03T05:25:58.631Z,66.80
2023-03-03T05:27:03.592Z,66.50
2023-03-03T05:28:06.188Z,66.80
2023-03-03T05:29:10.263Z,66.80
2023-03-03T05:30:13.534Z,66.70
2023-03-03T05:31:16.852Z,66.70
2023-03-03T05:32:19.317Z,66.70
2023-03-03T05:33:22.666Z,66.70
2023-03-03T05:34:25.108Z,66.60
2023-03-03T05:35:28.969Z,66.70
2023-03-03T05:36:31.486Z,66.90
2023-03-03T05:37:36.155Z,66.90
2023-03-03T05:38:38.668Z,66.90
2023-03-03T05:39:42.130Z,66.70
2023-03-03T05:40:44.630Z,66.70
2023-03-03T05:41:48.047Z,66.80
2023-03-03T05:42:50.639Z,66.60
2023-03-03T05:43:53.874Z,66.80
2023-03-03T05:44:56.239Z,66.80
2023-03-03T05:45:59.686Z,66.80
2023-03-03T05:47:02.011Z,66.80
2023-03-03T05:48:05.646Z,66.90
2023-03-03T05:49:08.055Z,66.90
2023-03-03T05:50:12.281Z,67.00
2023-03-03T05:51:15.002Z,67.00
2023-03-03T05:52:18.546Z,67.10
2023-03-03T05:53:22.159Z,67.50
2023-03-03T05:54:25.358Z,67.70
2023-03-03T05:55:27.735Z,67.80
2023-03-03T05:56:31.045Z,67.70
2023-03-03T05:57:37.172Z,67.80
2023-03-03T05:58:40.555Z,67.80
2023-03-03T05:59:42.829Z,67.60
2023-03-03T06:00:46.437Z,67.30
2023-03-03T06:01:51.131Z,67.20
2023-03-03T06:02:54.899Z,67.10
2023-03-03T06:03:57.311Z,67.30
2023-03-03T06:05:00.785Z,67.40
2023-03-03T06:06:09.333Z,67.40
2023-03-03T06:07:13.682Z,67.40
2023-03-03T06:08:27.481Z,67.30
2023-03-03T06:09:29.846Z,67.10
2023-03-03T06:10:36.359Z,66.90
2023-03-03T06:11:39.754Z,66.90
2023-03-03T06:12:43.312Z,67.00
2023-03-03T06:13:48.022Z,66.90
2023-03-03T06:14:51.566Z,66.60
2023-03-03T06:15:56.677Z,66.50
2023-03-03T06:17:00.177Z,66.10
2023-03-03T06:18:03.483Z,66.30
2023-03-03T06:19:09.277Z,66.30
2023-03-03T06:20:13.317Z,66.40
2023-03-03T06:21:15.815Z,66.50
2023-03-03T06:22:19.177Z,66.40
2023-03-03T06:23:25.469Z,66.40
2023-03-03T06:24:30.502Z,66.30
2023-03-03T06:25:35.748Z,66.30
2023-03-03T06:26:44.127Z,66.30
2023-03-03T06:27:46.494Z,66.50
2023-03-03T06:28:54.121Z,66.40
2023-03-03T06:29:56.494Z,66.40
2023-03-03T06:30:59.833Z,66.40
2023-03-03T06:32:02.586Z,66.40
2023-03-03T06:33:06.256Z,66.30
2023-03-03T06:34:11.654Z,66.40
2023-03-03T06:35:15.625Z,66.40
2023-03-03T06:36:20.847Z,66.40
2023-03-03T06:37:29.570Z,66.40
2023-03-03T06:38:42.989Z,66.40
2023-03-03T06:40:08.997Z,66.30
2023-03-03T06:41:12.252Z,66.40
2023-03-03T06:42:19.799Z,66.20
2023-03-03T06:43:35.724Z,66.30
2023-03-03T06:44:50.592Z,66.40
2023-03-03T06:46:03.511Z,66.20
2023-03-03T06:48:47.790Z,66.40
2023-03-03T06:50:03.127Z,66.40
2023-03-03T06:51:38.703Z,66.30
2023-03-03T06:52:50.984Z,66.40
2023-03-03T06:54:09.775Z,66.20
2023-03-03T06:55:31.566Z,66.40
2023-03-03T06:56:43.074Z,66.40
2023-03-03T06:57:49.950Z,66.50
2023-03-03T06:58:59.640Z,66.60
2023-03-03T07:00:20.603Z,66.60
2023-03-03T07:01:28.785Z,66.70
2023-03-03T07:02:36.145Z,66.50
2023-03-03T07:03:42.035Z,66.40
2023-03-03T07:04:48.550Z,66.30
2023-03-03T07:05:53.811Z,66.30
2023-03-03T07:07:08.227Z,66.00
2023-03-03T07:08:18.827Z,65.90
2023-03-03T07:09:27.113Z,65.90
2023-03-03T07:10:32.036Z,66.00
2023-03-03T07:11:36.561Z,66.10
2023-03-03T07:12:41.264Z,66.10
2023-03-03T07:13:47.772Z,66.20
2023-03-03T07:14:56.216Z,66.30
2023-03-03T07:16:10.422Z,66.40
2023-03-03T07:17:17.708Z,66.30
2023-03-03T07:18:39.885Z,66.10
2023-03-03T07:19:46.869Z,66.40
2023-03-03T07:20:58.408Z,66.40
2023-03-03T07:22:15.836Z,66.10
2023-03-03T07:24:55.748Z,66.30
2023-03-03T07:26:00.990Z,67.10
2023-03-03T07:27:15.304Z,66.60
2023-03-03T07:28:24.316Z,66.60
2023-03-03T07:29:31.056Z,66.80
2023-03-03T07:30:35.900Z,66.80
2023-03-03T07:31:44.663Z,66.60
2023-03-03T07:32:49.588Z,66.50
2023-03-03T07:33:54.895Z,66.80
2023-03-03T07:34:58.553Z,66.90
2023-03-03T07:36:04.219Z,66.80
2023-03-03T07:37:20.351Z,66.80
2023-03-03T07:38:31.846Z,66.80
2023-03-03T07:39:40.847Z,66.80
2023-03-03T07:40:51.086Z,66.70
2023-03-03T07:42:02.046Z,66.70
2023-03-03T07:43:36.059Z,66.70
2023-03-03T07:44:38.960Z,67.00
2023-03-03T07:45:43.774Z,66.40
2023-03-03T07:46:52.472Z,66.20
2023-03-03T07:48:10.545Z,66.30
2023-03-03T07:49:24.046Z,66.30
2023-03-03T07:50:28.655Z,66.30
2023-03-03T07:51:42.117Z,66.10
2023-03-03T07:53:03.462Z,66.20
2023-03-03T07:54:35.794Z,66.40
2023-03-03T07:55:48.381Z,66.70
2023-03-03T07:56:50.769Z,67.40
2023-03-03T07:57:59.172Z,66.80
2023-03-03T07:59:18.434Z,66.80
2023-03-03T08:01:13.754Z,66.80
2023-03-03T08:02:47.532Z,67.00
2023-03-03T08:03:54.570Z,66.80
2023-03-03T08:04:58.165Z,66.60
2023-03-03T08:07:16.441Z,66.90
2023-03-03T08:08:30.255Z,67.00
2023-03-03T08:09:40.492Z,66.90
2023-03-03T08:10:50.943Z,66.70
2023-03-03T08:11:57.023Z,66.60
2023-03-03T08:13:10.142Z,66.40
2023-03-03T08:14:17.697Z,66.50
2023-03-03T08:15:26.131Z,66.40
2023-03-03T08:16:38.056Z,66.40
2023-03-03T08:17:42.811Z,66.40
2023-03-03T08:18:48.305Z,65.90
2023-03-03T08:19:52.185Z,66.00
2023-03-03T08:20:57.472Z,66.10
2023-03-03T08:22:03.607Z,66.00
2023-03-03T08:23:06.758Z,65.90
2023-03-03T08:24:09.891Z,66.00
2023-03-03T08:25:12.038Z,65.80
2023-03-03T08:26:17.083Z,65.60
2023-03-03T08:27:19.342Z,65.50
2023-03-03T08:28:23.631Z,65.40
2023-03-03T08:29:25.765Z,65.60
2023-03-03T08:30:29.158Z,65.30
2023-03-03T08:31:41.358Z,65.30
2023-03-03T08:32:44.331Z,65.30
2023-03-03T08:33:47.509Z,65.50
2023-03-03T08:34:49.756Z,65.70
2023-03-03T08:35:53.448Z,66.00
2023-03-03T08:36:58.182Z,66.00
2023-03-03T08:38:01.519Z,65.90
2023-03-03T08:39:05.359Z,66.00
2023-03-03T08:40:09.033Z,65.90
2023-03-03T08:41:12.980Z,65.80
2023-03-03T08:42:16.494Z,65.50
2023-03-03T08:43:24.475Z,66.10
2023-03-03T08:44:27.208Z,65.50
2023-03-03T08:45:30.837Z,65.60
2023-03-03T08:46:34.232Z,65.60
2023-03-03T08:47:37.082Z,65.40
2023-03-03T08:48:40.708Z,65.50
2023-03-03T08:49:42.966Z,65.70
2023-03-03T08:50:47.137Z,65.60
2023-03-03T08:51:57.912Z,65.50
2023-03-03T08:53:14.035Z,65.10
2023-03-03T08:54:16.597Z,65.10
2023-03-03T08:55:20.071Z,65.30
2023-03-03T08:56:22.317Z,65.50
2023-03-03T08:57:26.850Z,65.60
2023-03-03T08:58:35.163Z,65.80
2023-03-03T08:59:39.110Z,66.00
2023-03-03T09:00:42.403Z,66.20
2023-03-03T09:01:45.581Z,65.90
2023-03-03T09:02:50.477Z,65.90
2023-03-03T09:03:52.735Z,66.00
2023-03-03T09:04:55.877Z,66.20
2023-03-03T09:05:59.072Z,66.20
2023-03-03T09:07:02.528Z,66.20
2023-03-03T09:08:07.230Z,66.10
2023-03-03T09:09:09.614Z,66.00
2023-03-03T09:10:15.926Z,65.90
2023-03-03T09:11:26.356Z,65.60
2023-03-03T09:12:35.227Z,65.40
2023-03-03T09:13:38.326Z,65.70
2023-03-03T09:14:40.553Z,65.60
2023-03-03T09:15:45.215Z,65.60
2023-03-03T09:16:56.611Z,65.60
2023-03-03T09:18:01.294Z,65.60
2023-03-03T09:19:20.769Z,65.40
2023-03-03T09:20:30.765Z,65.30
2023-03-03T09:21:35.162Z,65.10
2023-03-03T09:22:38.874Z,65.10
2023-03-03T09:23:43.702Z,65.10
2023-03-03T09:24:48.761Z,65.20
2023-03-03T09:25:55.053Z,65.40
2023-03-03T09:26:59.298Z,64.90
2023-03-03T09:28:04.373Z,64.90
2023-03-03T09:29:23.876Z,65.10
2023-03-03T09:30:40.409Z,64.90
2023-03-03T09:31:45.483Z,65.40
2023-03-03T09:32:48.608Z,65.70
2023-03-03T09:33:51.933Z,65.80
2023-03-03T09:34:55.266Z,66.00
2023-03-03T09:36:07.089Z,66.10
2023-03-03T09:37:23.978Z,65.90
2023-03-03T09:38:29.697Z,66.20
2023-03-03T09:39:33.837Z,66.30
2023-03-03T09:40:56.554Z,66.40
2023-03-03T09:42:44.460Z,66.50
2023-03-03T09:44:18.767Z,66.80
2023-03-03T09:45:37.968Z,66.50
2023-03-03T09:46:56.843Z,66.90
2023-03-03T09:48:23.920Z,66.80
2023-03-03T09:49:34.014Z,66.80
2023-03-03T09:50:49.159Z,67.00
2023-03-03T09:52:22.590Z,66.70
2023-03-03T09:53:43.450Z,66.60
2023-03-03T09:55:01.069Z,65.90
2023-03-03T09:56:18.245Z,65.60
2023-03-03T09:57:30.058Z,65.60
2023-03-03T09:59:04.545Z,64.90
2023-03-03T10:00:26.851Z,65.00
2023-03-03T10:01:44.558Z,65.10
2023-03-03T10:03:04.808Z,64.90
2023-03-03T10:04:26.372Z,64.40
2023-03-03T10:05:42.757Z,64.10
2023-03-03T10:06:55.203Z,64.10
2023-03-03T10:08:13.253Z,63.80
2023-03-03T10:09:40.609Z,63.80
2023-03-03T10:10:54.362Z,63.50
2023-03-03T10:12:05.618Z,63.30
2023-03-03T10:13:22.078Z,63.20
2023-03-03T10:14:48.042Z,62.80
2023-03-03T10:16:09.134Z,63.10
2023-03-03T10:17:37.855Z,62.40
2023-03-03T10:18:49.665Z,62.40
2023-03-03T10:20:12.562Z,62.80
2023-03-03T10:21:26.144Z,62.90
2023-03-03T10:22:40.028Z,62.70
2023-03-03T10:24:07.648Z,62.60
2023-03-03T10:25:29.646Z,62.80
2023-03-03T10:27:09.929Z,62.50
2023-03-03T10:28:31.349Z,62.20
2023-03-03T10:29:54.208Z,62.50
2023-03-03T10:31:13.617Z,62.00
2023-03-03T10:32:48.712Z,61.30
2023-03-03T10:34:03.310Z,61.80
2023-03-03T10:35:32.274Z,61.90
2023-03-03T10:36:56.259Z,62.00
2023-03-03T10:38:22.756Z,62.00
2023-03-03T10:39:51.387Z,61.70
2023-03-03T10:41:07.525Z,61.10
2023-03-03T10:42:23.651Z,61.20
2023-03-03T10:43:42.244Z,61.50
2023-03-03T10:45:17.196Z,61.30
2023-03-03T10:46:44.474Z,61.60
2023-03-03T10:48:07.150Z,61.10
2023-03-03T10:49:27.493Z,61.00
2023-03-03T10:50:40.394Z,60.60
2023-03-03T10:52:10.154Z,60.60
2023-03-03T10:53:24.434Z,60.60
2023-03-03T10:54:49.757Z,61.20
2023-03-03T10:56:11.093Z,61.20
2023-03-03T10:57:20.648Z,61.30
2023-03-03T10:58:39.484Z,61.90
2023-03-03T10:59:59.024Z,61.40
2023-03-03T11:01:13.634Z,61.60
2023-03-03T11:02:25.200Z,61.20
2023-03-03T11:03:46.897Z,60.80
2023-03-03T11:05:19.484Z,60.80
2023-03-03T11:06:29.599Z,60.40
2023-03-03T11:07:40.773Z,60.10
2023-03-03T11:08:49.910Z,59.80
2023-03-03T11:10:25.948Z,60.10
2023-03-03T11:11:45.002Z,59.90
2023-03-03T11:13:03.785Z,59.40
2023-03-03T11:14:14.978Z,59.60
2023-03-03T11:15:33.345Z,59.20
2023-03-03T11:16:51.771Z,59.00
2023-03-03T11:18:11.659Z,59.20
2023-03-03T11:19:40.292Z,58.70
2023-03-03T11:20:53.693Z,58.80
2023-03-03T11:22:12.471Z,59.00
2023-03-03T11:23:51.332Z,59.00
2023-03-03T11:25:09.592Z,59.20
2023-03-03T11:26:27.076Z,59.10
2023-03-03T11:27:51.610Z,59.50
2023-03-03T11:29:17.149Z,59.00
2023-03-03T11:30:40.806Z,59.40
2023-03-03T11:31:54.331Z,59.70
2023-03-03T11:33:05.834Z,59.40
2023-03-03T11:34:24.573Z,59.10
2023-03-03T11:35:36.453Z,59.20
2023-03-03T11:36:45.356Z,59.60
2023-03-03T11:38:03.956Z,59.60
2023-03-03T11:39:13.323Z,59.90
2023-03-03T11:40:24.898Z,59.30
2023-03-03T11:41:34.073Z,59.30
2023-03-03T11:43:02.853Z,59.10
2023-03-03T11:44:18.507Z,59.30
2023-03-03T11:45:26.805Z,58.30
2023-03-03T11:46:39.185Z,58.30
2023-03-03T11:47:52.127Z,58.80
2023-03-03T11:49:04.204Z,58.80
2023-03-03T11:50:18.362Z,58.70
2023-03-03T11:51:33.021Z,58.20
2023-03-03T11:52:47.734Z,58.50
2023-03-03T11:54:02.301Z,58.40
2023-03-03T11:55:14.486Z,58.40
2023-03-03T11:56:23.837Z,57.90
2023-03-03T11:57:34.352Z,58.00
2023-03-03T11:58:48.407Z,57.80
2023-03-03T12:00:25.219Z,57.30
2023-03-03T12:01:37.964Z,57.80
2023-03-03T12:03:11.989Z,57.90
2023-03-03T12:04:21.399Z,57.50
2023-03-03T12:05:46.514Z,57.00
2023-03-03T12:07:18.943Z,57.60
2023-03-03T12:08:38.568Z,57.60
2023-03-03T12:09:54.027Z,57.60
2023-03-03T12:11:09.013Z,57.20
2023-03-03T12:12:16.970Z,57.20
2023-03-03T12:13:34.924Z,57.20
2023-03-03T12:14:56.199Z,57.40
2023-03-03T12:16:12.288Z,57.70
2023-03-03T12:17:39.232Z,57.90
2023-03-03T12:19:00.677Z,57.80
2023-03-03T12:20:16.365Z,57.80
2023-03-03T12:21:48.728Z,57.40
2023-03-03T12:23:07.875Z,57.00
2023-03-03T12:24:34.398Z,57.30
2023-03-03T12:25:43.299Z,56.70
2023-03-03T12:26:56.994Z,57.10
2023-03-03T12:28:08.640Z,57.00
2023-03-03T12:29:25.432Z,57.30
2023-03-03T12:30:51.405Z,57.10
2023-03-03T12:32:03.928Z,57.00
2023-03-03T12:33:28.101Z,56.70
2023-03-03T12:34:42.480Z,56.90
2023-03-03T12:36:06.172Z,55.80
2023-03-03T12:37:45.520Z,55.70
2023-03-03T12:39:02.786Z,55.40
2023-03-03T12:40:10.810Z,56.10
2023-03-03T12:41:22.971Z,56.50
2023-03-03T12:42:41.161Z,56.50
2023-03-03T12:43:57.271Z,56.50
2023-03-03T12:45:14.528Z,56.90
2023-03-03T12:46:29.594Z,56.80
2023-03-03T12:47:40.833Z,57.10
2023-03-03T12:48:46.849Z,57.60
2023-03-03T12:50:08.286Z,56.70
2023-03-03T12:51:22.789Z,56.60
2023-03-03T12:52:36.730Z,56.50
2023-03-03T12:53:53.144Z,56.70
2023-03-03T12:55:09.513Z,57.00
2023-03-03T12:56:17.402Z,57.00
2023-03-03T12:57:31.529Z,57.00
2023-03-03T12:58:47.905Z,57.00
2023-03-03T13:00:10.160Z,57.10
2023-03-03T13:01:28.501Z,57.30
2023-03-03T13:02:45.212Z,57.00
2023-03-03T13:04:05.249Z,56.30
2023-03-03T13:05:22.657Z,56.30
2023-03-03T13:06:32.010Z,56.40
2023-03-03T13:07:42.128Z,56.70
2023-03-03T13:09:00.714Z,56.90
2023-03-03T13:10:15.459Z,57.00
2023-03-03T13:11:46.763Z,56.50
2023-03-03T13:12:59.290Z,56.70
2023-03-03T13:14:17.389Z,55.90
2023-03-03T13:15:32.195Z,55.80
2023-03-03T13:16:44.739Z,56.00
2023-03-03T13:18:01.049Z,56.30
2023-03-03T13:19:13.607Z,55.90
2023-03-03T13:20:45.864Z,55.90
2023-03-03T13:21:54.868Z,56.00
2023-03-03T13:23:09.003Z,56.00
2023-03-03T13:24:22.391Z,56.00
2023-03-03T13:25:40.327Z,55.40
2023-03-03T13:26:48.658Z,55.60
2023-03-03T13:27:58.596Z,55.90
2023-03-03T13:29:12.815Z,55.20
2023-03-03T13:30:24.612Z,55.40
2023-03-03T13:31:33.948Z,55.10
2023-03-03T13:32:47.686Z,55.20
2023-03-03T13:33:56.600Z,54.50
2023-03-03T13:35:08.026Z,55.20
2023-03-03T13:36:14.880Z,54.80
2023-03-03T13:37:22.712Z,54.60
2023-03-03T13:38:32.096Z,55.10
2023-03-03T13:39:43.004Z,55.20
2023-03-03T13:40:51.938Z,55.20
2023-03-03T13:42:01.828Z,55.40
2023-03-03T13:43:13.037Z,55.30
2023-03-03T13:44:25.390Z,55.90
2023-03-03T13:45:37.487Z,56.20
2023-03-03T13:46:47.633Z,55.70
2023-03-03T13:48:00.949Z,56.00
2023-03-03T13:49:31.058Z,56.10
2023-03-03T13:50:47.584Z,55.60
2023-03-03T13:52:01.713Z,55.50
2023-03-03T13:53:43.391Z,55.80
2023-03-03T13:55:15.225Z,55.20
2023-03-03T13:56:36.853Z,55.10
2023-03-03T13:57:50.351Z,55.00
2023-03-03T13:59:07.077Z,55.00
2023-03-03T14:00:31.926Z,55.10
2023-03-03T14:01:49.495Z,55.00
2023-03-03T14:03:12.512Z,55.40
2023-03-03T14:04:33.307Z,55.60
2023-03-03T14:05:45.357Z,55.30
2023-03-03T14:06:56.953Z,54.90
2023-03-03T14:08:06.107Z,55.20
2023-03-03T14:09:34.768Z,54.20
2023-03-03T14:10:48.530Z,54.40
2023-03-03T14:12:01.652Z,54.40
2023-03-03T14:13:09.409Z,54.60
2023-03-03T14:14:29.653Z,54.20
2023-03-03T14:15:36.826Z,54.40
2023-03-03T14:16:51.317Z,54.60
2023-03-03T14:18:09.893Z,54.70
2023-03-03T14:19:19.580Z,54.90
2023-03-03T14:20:28.972Z,54.00
2023-03-03T14:21:41.230Z,54.00
2023-03-03T14:22:52.664Z,54.20
2023-03-03T14:24:07.969Z,54.30
2023-03-03T14:25:13.006Z,54.40
2023-03-03T14:26:16.453Z,54.20
2023-03-03T14:27:25.250Z,54.40
2023-03-03T14:28:38.341Z,54.40
2023-03-03T14:29:41.595Z,54.10
2023-03-03T14:30:44.611Z,53.50
2023-03-03T14:31:48.126Z,53.90
2023-03-03T14:33:05.689Z,54.20
2023-03-03T14:34:31.501Z,54.00
2023-03-03T14:35:36.096Z,53.70
2023-03-03T14:36:43.821Z,54.50
2023-03-03T14:37:51.469Z,54.70
2023-03-03T14:38:54.764Z,54.10
2023-03-03T14:40:19.012Z,54.20
2023-03-03T14:41:36.912Z,54.10
2023-03-03T14:42:48.913Z,53.70
2023-03-03T14:44:01.354Z,53.90
2023-03-03T14:45:29.522Z,53.80
2023-03-03T14:46:40.388Z,54.10
2023-03-03T14:47:46.408Z,54.30
2023-03-03T14:48:54.465Z,53.90
2023-03-03T14:50:00.178Z,53.50
2023-03-03T14:51:27.178Z,53.60
2023-03-03T14:52:35.834Z,53.10
2023-03-03T14:53:43.787Z,53.70
2023-03-03T14:54:49.136Z,54.20
2023-03-03T14:55:54.637Z,54.50
2023-03-03T14:57:07.012Z,54.70
2023-03-03T14:58:26.592Z,54.40
2023-03-03T14:59:31.825Z,54.20
2023-03-03T15:00:36.729Z,54.40
2023-03-03T15:01:39.706Z,54.30
2023-03-03T15:02:45.467Z,54.20